sensor_id;sensor_type;location;lat;lon;timestamp;P1;durP1;ratioP1;P2;durP2;ratioP2
39308;SDS011;26019;47.510;19.122;2023-07-29T00:04:17;6.38;;;3.83;;
39308;SDS011;26019;47.510;19.122;2023-07-29T00:14:20;7.80;;;4.28;;
39308;SDS011;26019;47.510;19.122;2023-07-29T00:24:22;10.10;;;4.47;;
39308;SDS011;26019;47.510;19.122;2023-07-29T00:34:24;5.53;;;4.07;;
39308;SDS011;26019;47.510;19.122;2023-07-29T00:44:28;5.28;;;4.28;;
39308;SDS011;26019;47.510;19.122;2023-07-29T00:54:29;10.50;;;4.18;;
39308;SDS011;26019;47.510;19.122;2023-07-29T01:04:32;10.00;;;4.68;;
39308;SDS011;26019;47.510;19.122;2023-07-29T01:14:36;6.05;;;4.95;;
39308;SDS011;26019;47.510;19.122;2023-07-29T01:24:42;10.50;;;5.03;;
39308;SDS011;26019;47.510;19.122;2023-07-29T01:34:48;6.20;;;4.80;;
39308;SDS011;26019;47.510;19.122;2023-07-29T01:44:57;8.73;;;5.05;;
39308;SDS011;26019;47.510;19.122;2023-07-29T01:55:00;6.60;;;4.68;;
39308;SDS011;26019;47.510;19.122;2023-07-29T02:05:03;10.25;;;5.20;;
39308;SDS011;26019;47.510;19.122;2023-07-29T02:15:05;7.93;;;5.07;;
39308;SDS011;26019;47.510;19.122;2023-07-29T02:25:10;6.60;;;4.47;;
39308;SDS011;26019;47.510;19.122;2023-07-29T02:35:12;9.32;;;4.53;;
39308;SDS011;26019;47.510;19.122;2023-07-29T02:55:18;6.85;;;4.75;;
39308;SDS011;26019;47.510;19.122;2023-07-29T03:05:22;12.30;;;4.80;;
39308;SDS011;26019;47.510;19.122;2023-07-29T03:25:32;9.70;;;5.45;;
39308;SDS011;26019;47.510;19.122;2023-07-29T03:35:34;11.82;;;5.28;;
39308;SDS011;26019;47.510;19.122;2023-07-29T03:55:38;6.17;;;5.17;;
39308;SDS011;26019;47.510;19.122;2023-07-29T04:05:39;10.93;;;5.38;;
39308;SDS011;26019;47.510;19.122;2023-07-29T04:25:44;12.18;;;6.10;;
39308;SDS011;26019;47.510;19.122;2023-07-29T04:35:47;5.28;;;4.47;;
39308;SDS011;26019;47.510;19.122;2023-07-29T04:45:48;5.80;;;4.30;;
39308;SDS011;26019;47.510;19.122;2023-07-29T04:55:51;6.90;;;3.20;;
39308;SDS011;26019;47.510;19.122;2023-07-29T05:05:53;7.68;;;3.53;;
39308;SDS011;26019;47.510;19.122;2023-07-29T05:15:57;5.60;;;3.25;;
39308;SDS011;26019;47.510;19.122;2023-07-29T05:25:58;3.63;;;2.72;;
39308;SDS011;26019;47.510;19.122;2023-07-29T05:36:00;4.57;;;2.85;;
39308;SDS011;26019;47.510;19.122;2023-07-29T05:46:07;6.63;;;3.05;;
39308;SDS011;26019;47.510;19.122;2023-07-29T05:56:12;4.32;;;2.67;;
39308;SDS011;26019;47.510;19.122;2023-07-29T06:06:14;5.15;;;3.03;;
39308;SDS011;26019;47.510;19.122;2023-07-29T06:16:16;5.43;;;2.70;;
39308;SDS011;26019;47.510;19.122;2023-07-29T06:36:22;5.35;;;3.28;;
39308;SDS011;26019;47.510;19.122;2023-07-29T06:46:24;4.55;;;3.25;;
39308;SDS011;26019;47.510;19.122;2023-07-29T06:56:26;4.97;;;3.15;;
39308;SDS011;26019;47.510;19.122;2023-07-29T07:06:29;9.90;;;2.78;;
39308;SDS011;26019;47.510;19.122;2023-07-29T07:16:31;3.42;;;2.60;;
39308;SDS011;26019;47.510;19.122;2023-07-29T07:26:33;5.28;;;2.97;;
39308;SDS011;26019;47.510;19.122;2023-07-29T07:36:36;4.43;;;2.70;;
39308;SDS011;26019;47.510;19.122;2023-07-29T07:46:39;5.00;;;2.60;;
39308;SDS011;26019;47.510;19.122;2023-07-29T07:56:42;4.60;;;2.85;;
39308;SDS011;26019;47.510;19.122;2023-07-29T08:06:44;3.90;;;2.78;;
39308;SDS011;26019;47.510;19.122;2023-07-29T08:16:47;6.30;;;3.47;;
39308;SDS011;26019;47.510;19.122;2023-07-29T08:26:49;2.85;;;2.40;;
39308;SDS011;26019;47.510;19.122;2023-07-29T08:36:50;2.95;;;2.10;;
39308;SDS011;26019;47.510;19.122;2023-07-29T08:46:52;5.85;;;1.95;;
39308;SDS011;26019;47.510;19.122;2023-07-29T08:56:55;2.83;;;2.40;;
39308;SDS011;26019;47.510;19.122;2023-07-29T09:06:57;3.25;;;2.70;;
39308;SDS011;26019;47.510;19.122;2023-07-29T09:17:00;3.42;;;1.98;;
39308;SDS011;26019;47.510;19.122;2023-07-29T09:27:02;1.50;;;1.25;;
39308;SDS011;26019;47.510;19.122;2023-07-29T09:37:04;2.78;;;1.38;;
39308;SDS011;26019;47.510;19.122;2023-07-29T09:47:08;0.77;;;0.77;;
39308;SDS011;26019;47.510;19.122;2023-07-29T09:57:14;2.95;;;1.13;;
39308;SDS011;26019;47.510;19.122;2023-07-29T10:07:19;1.23;;;1.10;;
39308;SDS011;26019;47.510;19.122;2023-07-29T10:17:21;1.73;;;1.40;;
39308;SDS011;26019;47.510;19.122;2023-07-29T10:27:25;1.73;;;1.17;;
39308;SDS011;26019;47.510;19.122;2023-07-29T10:37:36;1.42;;;1.30;;
39308;SDS011;26019;47.510;19.122;2023-07-29T10:47:39;1.45;;;1.20;;
39308;SDS011;26019;47.510;19.122;2023-07-29T10:57:41;1.88;;;1.30;;
39308;SDS011;26019;47.510;19.122;2023-07-29T11:07:47;1.80;;;1.70;;
39308;SDS011;26019;47.510;19.122;2023-07-29T11:17:52;3.50;;;1.27;;
39308;SDS011;26019;47.510;19.122;2023-07-29T11:27:55;3.10;;;1.00;;
39308;SDS011;26019;47.510;19.122;2023-07-29T11:37:59;1.50;;;1.40;;
39308;SDS011;26019;47.510;19.122;2023-07-29T11:48:01;2.13;;;1.80;;
39308;SDS011;26019;47.510;19.122;2023-07-29T11:58:04;2.85;;;1.00;;
39308;SDS011;26019;47.510;19.122;2023-07-29T12:08:06;1.90;;;1.20;;
39308;SDS011;26019;47.510;19.122;2023-07-29T12:18:09;2.45;;;1.83;;
39308;SDS011;26019;47.510;19.122;2023-07-29T12:28:11;1.17;;;1.08;;
39308;SDS011;26019;47.510;19.122;2023-07-29T12:38:20;2.03;;;1.40;;
39308;SDS011;26019;47.510;19.122;2023-07-29T12:48:22;2.10;;;1.90;;
39308;SDS011;26019;47.510;19.122;2023-07-29T12:58:24;1.48;;;1.38;;
39308;SDS011;26019;47.510;19.122;2023-07-29T13:08:26;1.83;;;1.60;;
39308;SDS011;26019;47.510;19.122;2023-07-29T13:18:29;1.67;;;1.58;;
39308;SDS011;26019;47.510;19.122;2023-07-29T13:28:31;1.33;;;1.20;;
39308;SDS011;26019;47.510;19.122;2023-07-29T13:38:33;2.15;;;1.27;;
39308;SDS011;26019;47.510;19.122;2023-07-29T13:48:35;1.50;;;1.40;;
39308;SDS011;26019;47.510;19.122;2023-07-29T13:58:37;1.60;;;1.13;;
39308;SDS011;26019;47.510;19.122;2023-07-29T14:08:39;1.30;;;1.20;;
39308;SDS011;26019;47.510;19.122;2023-07-29T14:18:43;1.40;;;1.30;;
39308;SDS011;26019;47.510;19.122;2023-07-29T14:28:45;0.80;;;0.80;;
39308;SDS011;26019;47.510;19.122;2023-07-29T14:38:46;0.95;;;0.90;;
39308;SDS011;26019;47.510;19.122;2023-07-29T14:48:48;1.65;;;1.55;;
39308;SDS011;26019;47.510;19.122;2023-07-29T14:58:52;1.60;;;1.45;;
39308;SDS011;26019;47.510;19.122;2023-07-29T15:08:54;1.98;;;1.50;;
39308;SDS011;26019;47.510;19.122;2023-07-29T15:18:56;1.95;;;1.73;;
39308;SDS011;26019;47.510;19.122;2023-07-29T15:28:58;2.65;;;1.27;;
39308;SDS011;26019;47.510;19.122;2023-07-29T15:39:03;6.65;;;1.92;;
39308;SDS011;26019;47.510;19.122;2023-07-29T15:49:05;2.95;;;1.80;;
39308;SDS011;26019;47.510;19.122;2023-07-29T15:59:07;2.25;;;1.70;;
39308;SDS011;26019;47.510;19.122;2023-07-29T16:09:09;6.72;;;1.75;;
39308;SDS011;26019;47.510;19.122;2023-07-29T16:19:11;2.00;;;1.45;;
39308;SDS011;26019;47.510;19.122;2023-07-29T16:29:12;2.85;;;2.60;;
39308;SDS011;26019;47.510;19.122;2023-07-29T16:39:14;3.97;;;1.95;;
39308;SDS011;26019;47.510;19.122;2023-07-29T16:49:16;3.65;;;2.58;;
39308;SDS011;26019;47.510;19.122;2023-07-29T16:59:22;3.70;;;3.25;;
39308;SDS011;26019;47.510;19.122;2023-07-29T17:09:24;3.80;;;3.05;;
39308;SDS011;26019;47.510;19.122;2023-07-29T17:19:27;5.30;;;2.53;;
39308;SDS011;26019;47.510;19.122;2023-07-29T17:29:31;2.35;;;1.98;;
39308;SDS011;26019;47.510;19.122;2023-07-29T17:39:33;2.20;;;1.75;;
39308;SDS011;26019;47.510;19.122;2023-07-29T17:49:36;1.90;;;1.70;;
39308;SDS011;26019;47.510;19.122;2023-07-29T17:59:38;1.70;;;1.55;;
39308;SDS011;26019;47.510;19.122;2023-07-29T18:09:40;4.32;;;1.45;;
39308;SDS011;26019;47.510;19.122;2023-07-29T18:19:42;2.63;;;1.83;;
39308;SDS011;26019;47.510;19.122;2023-07-29T18:29:45;1.70;;;1.55;;
39308;SDS011;26019;47.510;19.122;2023-07-29T18:39:50;1.83;;;1.60;;
39308;SDS011;26019;47.510;19.122;2023-07-29T18:49:51;2.45;;;2.10;;
39308;SDS011;26019;47.510;19.122;2023-07-29T18:59:54;3.55;;;1.90;;
39308;SDS011;26019;47.510;19.122;2023-07-29T19:09:58;2.28;;;1.90;;
39308;SDS011;26019;47.510;19.122;2023-07-29T19:20:01;2.95;;;1.77;;
39308;SDS011;26019;47.510;19.122;2023-07-29T19:30:06;5.57;;;2.20;;
39308;SDS011;26019;47.510;19.122;2023-07-29T19:40:09;4.60;;;1.75;;
39308;SDS011;26019;47.510;19.122;2023-07-29T19:50:13;6.47;;;3.17;;
39308;SDS011;26019;47.510;19.122;2023-07-29T20:00:15;4.90;;;2.38;;
39308;SDS011;26019;47.510;19.122;2023-07-29T20:10:18;3.35;;;2.33;;
39308;SDS011;26019;47.510;19.122;2023-07-29T20:20:21;2.50;;;1.73;;
39308;SDS011;26019;47.510;19.122;2023-07-29T20:30:25;5.18;;;2.17;;
39308;SDS011;26019;47.510;19.122;2023-07-29T20:40:31;7.85;;;2.83;;
39308;SDS011;26019;47.510;19.122;2023-07-29T20:50:33;3.75;;;2.60;;
39308;SDS011;26019;47.510;19.122;2023-07-29T21:00:39;2.75;;;2.15;;
39308;SDS011;26019;47.510;19.122;2023-07-29T21:10:49;3.75;;;2.40;;
39308;SDS011;26019;47.510;19.122;2023-07-29T21:20:55;4.55;;;2.10;;
39308;SDS011;26019;47.510;19.122;2023-07-29T21:30:57;4.85;;;2.30;;
39308;SDS011;26019;47.510;19.122;2023-07-29T21:40:59;3.75;;;2.30;;
39308;SDS011;26019;47.510;19.122;2023-07-29T21:51:01;3.70;;;2.78;;
39308;SDS011;26019;47.510;19.122;2023-07-29T22:01:03;2.83;;;2.42;;
39308;SDS011;26019;47.510;19.122;2023-07-29T22:11:06;6.07;;;2.67;;
39308;SDS011;26019;47.510;19.122;2023-07-29T22:21:10;3.15;;;2.55;;
39308;SDS011;26019;47.510;19.122;2023-07-29T22:31:17;3.40;;;2.42;;
39308;SDS011;26019;47.510;19.122;2023-07-29T22:41:19;5.15;;;2.70;;
39308;SDS011;26019;47.510;19.122;2023-07-29T22:51:21;7.55;;;2.85;;
39308;SDS011;26019;47.510;19.122;2023-07-29T23:01:23;4.60;;;2.63;;
39308;SDS011;26019;47.510;19.122;2023-07-29T23:11:24;3.10;;;2.50;;
39308;SDS011;26019;47.510;19.122;2023-07-29T23:21:26;3.13;;;2.83;;
39308;SDS011;26019;47.510;19.122;2023-07-29T23:31:28;2.58;;;2.13;;
39308;SDS011;26019;47.510;19.122;2023-07-29T23:41:30;8.02;;;3.03;;
